sensor_id;sensor_type;location;lat;lon;timestamp;P1;durP1;ratioP1;P2;durP2;ratioP2
16642;SDS011;8435;52.184;5.406;2023-04-29T00:01:30;21.93;;;17.97;;
16642;SDS011;8435;52.184;5.406;2023-04-29T00:03:57;26.73;;;18.60;;
16642;SDS011;8435;52.184;5.406;2023-04-29T00:06:27;21.63;;;18.03;;
16642;SDS011;8435;52.184;5.406;2023-04-29T00:08:54;23.03;;;18.13;;
16642;SDS011;8435;52.184;5.406;2023-04-29T00:11:21;26.50;;;18.90;;
16642;SDS011;8435;52.184;5.406;2023-04-29T00:13:49;23.47;;;18.40;;
16642;SDS011;8435;52.184;5.406;2023-04-29T00:16:16;24.00;;;18.90;;
16642;SDS011;8435;52.184;5.406;2023-04-29T00:18:45;23.30;;;17.60;;
16642;SDS011;8435;52.184;5.406;2023-04-29T00:21:12;21.87;;;17.40;;
16642;SDS011;8435;52.184;5.406;2023-04-29T00:23:39;24.70;;;18.17;;
16642;SDS011;8435;52.184;5.406;2023-04-29T00:26:06;19.73;;;16.97;;
16642;SDS011;8435;52.184;5.406;2023-04-29T00:28:32;22.83;;;17.90;;
16642;SDS011;8435;52.184;5.406;2023-04-29T00:31:01;20.63;;;16.67;;
16642;SDS011;8435;52.184;5.406;2023-04-29T00:33:27;18.30;;;15.47;;
16642;SDS011;8435;52.184;5.406;2023-04-29T00:35:55;19.60;;;14.80;;
16642;SDS011;8435;52.184;5.406;2023-04-29T00:38:22;16.93;;;13.60;;
16642;SDS011;8435;52.184;5.406;2023-04-29T00:40:48;16.83;;;13.03;;
16642;SDS011;8435;52.184;5.406;2023-04-29T00:43:15;17.10;;;13.40;;
16642;SDS011;8435;52.184;5.406;2023-04-29T00:45:42;14.90;;;13.20;;
16642;SDS011;8435;52.184;5.406;2023-04-29T00:48:12;16.83;;;14.23;;
16642;SDS011;8435;52.184;5.406;2023-04-29T00:50:39;16.73;;;13.90;;
16642;SDS011;8435;52.184;5.406;2023-04-29T00:53:06;16.37;;;14.67;;
16642;SDS011;8435;52.184;5.406;2023-04-29T00:55:34;17.47;;;15.33;;
16642;SDS011;8435;52.184;5.406;2023-04-29T00:58:02;17.13;;;14.83;;
16642;SDS011;8435;52.184;5.406;2023-04-29T01:00:28;19.87;;;16.10;;
16642;SDS011;8435;52.184;5.406;2023-04-29T01:02:56;17.87;;;15.97;;
16642;SDS011;8435;52.184;5.406;2023-04-29T01:05:25;17.27;;;15.47;;
16642;SDS011;8435;52.184;5.406;2023-04-29T01:07:55;18.67;;;15.73;;
16642;SDS011;8435;52.184;5.406;2023-04-29T01:10:30;18.83;;;14.87;;
16642;SDS011;8435;52.184;5.406;2023-04-29T01:13:05;18.63;;;15.37;;
16642;SDS011;8435;52.184;5.406;2023-04-29T01:15:37;20.57;;;17.60;;
16642;SDS011;8435;52.184;5.406;2023-04-29T01:18:13;21.87;;;17.30;;
16642;SDS011;8435;52.184;5.406;2023-04-29T01:20:48;20.07;;;16.60;;
16642;SDS011;8435;52.184;5.406;2023-04-29T01:23:16;20.67;;;16.80;;
16642;SDS011;8435;52.184;5.406;2023-04-29T01:25:44;20.40;;;16.40;;
16642;SDS011;8435;52.184;5.406;2023-04-29T01:28:15;20.70;;;16.30;;
16642;SDS011;8435;52.184;5.406;2023-04-29T01:30:55;19.00;;;15.93;;
16642;SDS011;8435;52.184;5.406;2023-04-29T01:33:28;18.40;;;15.33;;
16642;SDS011;8435;52.184;5.406;2023-04-29T01:36:11;18.07;;;14.93;;
16642;SDS011;8435;52.184;5.406;2023-04-29T01:38:46;18.93;;;15.50;;
16642;SDS011;8435;52.184;5.406;2023-04-29T01:41:21;21.07;;;16.27;;
16642;SDS011;8435;52.184;5.406;2023-04-29T01:43:52;19.23;;;15.97;;
16642;SDS011;8435;52.184;5.406;2023-04-29T01:46:28;19.10;;;14.33;;
16642;SDS011;8435;52.184;5.406;2023-04-29T01:48:56;17.83;;;14.90;;
16642;SDS011;8435;52.184;5.406;2023-04-29T01:51:23;17.67;;;15.43;;
16642;SDS011;8435;52.184;5.406;2023-04-29T01:53:50;20.80;;;15.40;;
16642;SDS011;8435;52.184;5.406;2023-04-29T01:56:16;19.33;;;14.70;;
16642;SDS011;8435;52.184;5.406;2023-04-29T01:58:44;19.37;;;15.20;;
16642;SDS011;8435;52.184;5.406;2023-04-29T02:01:17;19.30;;;16.40;;
16642;SDS011;8435;52.184;5.406;2023-04-29T02:03:44;19.50;;;15.50;;
16642;SDS011;8435;52.184;5.406;2023-04-29T02:06:11;18.07;;;15.00;;
16642;SDS011;8435;52.184;5.406;2023-04-29T02:08:38;17.60;;;13.67;;
16642;SDS011;8435;52.184;5.406;2023-04-29T02:11:05;18.33;;;13.90;;
16642;SDS011;8435;52.184;5.406;2023-04-29T02:13:31;16.90;;;13.60;;
16642;SDS011;8435;52.184;5.406;2023-04-29T02:16:07;14.93;;;13.30;;
16642;SDS011;8435;52.184;5.406;2023-04-29T02:18:34;14.10;;;12.37;;
16642;SDS011;8435;52.184;5.406;2023-04-29T02:21:01;17.23;;;12.80;;
16642;SDS011;8435;52.184;5.406;2023-04-29T02:23:28;15.73;;;12.80;;
16642;SDS011;8435;52.184;5.406;2023-04-29T02:25:55;13.80;;;11.27;;
16642;SDS011;8435;52.184;5.406;2023-04-29T02:28:22;15.07;;;12.37;;
16642;SDS011;8435;52.184;5.406;2023-04-29T02:30:49;16.60;;;11.43;;
16642;SDS011;8435;52.184;5.406;2023-04-29T02:33:17;14.33;;;12.83;;
16642;SDS011;8435;52.184;5.406;2023-04-29T02:35:44;15.90;;;12.37;;
16642;SDS011;8435;52.184;5.406;2023-04-29T02:38:11;14.00;;;11.77;;
16642;SDS011;8435;52.184;5.406;2023-04-29T02:40:40;15.50;;;12.27;;
16642;SDS011;8435;52.184;5.406;2023-04-29T02:43:09;12.27;;;10.93;;
16642;SDS011;8435;52.184;5.406;2023-04-29T02:45:37;13.03;;;11.67;;
16642;SDS011;8435;52.184;5.406;2023-04-29T02:48:04;14.73;;;12.37;;
16642;SDS011;8435;52.184;5.406;2023-04-29T02:50:35;15.60;;;13.10;;
16642;SDS011;8435;52.184;5.406;2023-04-29T02:53:02;13.87;;;12.00;;
16642;SDS011;8435;52.184;5.406;2023-04-29T02:55:29;16.30;;;12.13;;
16642;SDS011;8435;52.184;5.406;2023-04-29T02:57:56;13.43;;;12.03;;
16642;SDS011;8435;52.184;5.406;2023-04-29T03:00:22;13.90;;;11.90;;
16642;SDS011;8435;52.184;5.406;2023-04-29T03:02:49;12.47;;;11.17;;
16642;SDS011;8435;52.184;5.406;2023-04-29T03:05:16;13.43;;;11.73;;
16642;SDS011;8435;52.184;5.406;2023-04-29T03:07:44;14.40;;;12.83;;
16642;SDS011;8435;52.184;5.406;2023-04-29T03:10:11;15.70;;;12.73;;
16642;SDS011;8435;52.184;5.406;2023-04-29T03:12:38;15.70;;;12.80;;
16642;SDS011;8435;52.184;5.406;2023-04-29T03:15:05;17.03;;;12.73;;
16642;SDS011;8435;52.184;5.406;2023-04-29T03:17:34;15.00;;;13.33;;
16642;SDS011;8435;52.184;5.406;2023-04-29T03:20:01;14.27;;;12.77;;
16642;SDS011;8435;52.184;5.406;2023-04-29T03:22:28;15.90;;;12.70;;
16642;SDS011;8435;52.184;5.406;2023-04-29T03:24:56;15.70;;;13.17;;
16642;SDS011;8435;52.184;5.406;2023-04-29T03:27:25;15.13;;;12.73;;
16642;SDS011;8435;52.184;5.406;2023-04-29T03:29:52;16.53;;;13.70;;
16642;SDS011;8435;52.184;5.406;2023-04-29T03:32:19;15.67;;;13.33;;
16642;SDS011;8435;52.184;5.406;2023-04-29T03:34:46;15.67;;;13.57;;
16642;SDS011;8435;52.184;5.406;2023-04-29T03:37:13;15.43;;;13.83;;
16642;SDS011;8435;52.184;5.406;2023-04-29T03:39:40;15.27;;;12.83;;
16642;SDS011;8435;52.184;5.406;2023-04-29T03:42:09;18.73;;;14.90;;
16642;SDS011;8435;52.184;5.406;2023-04-29T03:44:35;16.17;;;14.40;;
16642;SDS011;8435;52.184;5.406;2023-04-29T03:47:02;16.50;;;14.33;;
16642;SDS011;8435;52.184;5.406;2023-04-29T03:49:29;15.03;;;13.00;;
16642;SDS011;8435;52.184;5.406;2023-04-29T03:51:58;14.93;;;13.40;;
16642;SDS011;8435;52.184;5.406;2023-04-29T03:54:26;14.90;;;13.30;;
16642;SDS011;8435;52.184;5.406;2023-04-29T03:56:53;14.03;;;12.53;;
16642;SDS011;8435;52.184;5.406;2023-04-29T03:59:21;14.33;;;12.57;;
16642;SDS011;8435;52.184;5.406;2023-04-29T04:01:48;15.30;;;12.57;;
16642;SDS011;8435;52.184;5.406;2023-04-29T04:04:18;15.73;;;13.50;;
16642;SDS011;8435;52.184;5.406;2023-04-29T04:06:45;16.37;;;13.57;;
16642;SDS011;8435;52.184;5.406;2023-04-29T04:09:15;14.63;;;13.00;;
16642;SDS011;8435;52.184;5.406;2023-04-29T04:11:42;15.07;;;13.33;;
16642;SDS011;8435;52.184;5.406;2023-04-29T04:14:09;13.03;;;11.63;;
16642;SDS011;8435;52.184;5.406;2023-04-29T04:16:37;15.90;;;13.10;;
16642;SDS011;8435;52.184;5.406;2023-04-29T04:19:04;14.17;;;12.20;;
16642;SDS011;8435;52.184;5.406;2023-04-29T04:21:31;14.03;;;11.87;;
16642;SDS011;8435;52.184;5.406;2023-04-29T04:23:58;12.50;;;11.20;;
16642;SDS011;8435;52.184;5.406;2023-04-29T04:26:25;13.30;;;11.90;;
16642;SDS011;8435;52.184;5.406;2023-04-29T04:28:52;12.27;;;11.03;;
16642;SDS011;8435;52.184;5.406;2023-04-29T04:31:18;13.07;;;11.10;;
16642;SDS011;8435;52.184;5.406;2023-04-29T04:33:47;12.27;;;11.03;;
16642;SDS011;8435;52.184;5.406;2023-04-29T04:36:13;14.07;;;11.47;;
16642;SDS011;8435;52.184;5.406;2023-04-29T04:38:40;13.70;;;12.17;;
16642;SDS011;8435;52.184;5.406;2023-04-29T04:41:10;11.67;;;10.57;;
16642;SDS011;8435;52.184;5.406;2023-04-29T04:43:37;12.57;;;11.23;;
16642;SDS011;8435;52.184;5.406;2023-04-29T04:46:11;12.87;;;11.13;;
16642;SDS011;8435;52.184;5.406;2023-04-29T04:48:38;12.90;;;11.00;;
16642;SDS011;8435;52.184;5.406;2023-04-29T04:51:10;11.47;;;10.27;;
16642;SDS011;8435;52.184;5.406;2023-04-29T04:53:38;12.30;;;11.10;;
16642;SDS011;8435;52.184;5.406;2023-04-29T04:56:06;12.57;;;11.10;;
16642;SDS011;8435;52.184;5.406;2023-04-29T04:58:33;11.70;;;10.50;;
16642;SDS011;8435;52.184;5.406;2023-04-29T05:01:00;12.47;;;11.17;;
16642;SDS011;8435;52.184;5.406;2023-04-29T05:03:26;13.43;;;12.00;;
16642;SDS011;8435;52.184;5.406;2023-04-29T05:05:53;12.53;;;11.33;;
16642;SDS011;8435;52.184;5.406;2023-04-29T05:08:22;12.53;;;10.87;;
16642;SDS011;8435;52.184;5.406;2023-04-29T05:10:49;12.57;;;10.90;;
16642;SDS011;8435;52.184;5.406;2023-04-29T05:13:16;11.87;;;10.77;;
16642;SDS011;8435;52.184;5.406;2023-04-29T05:15:43;12.27;;;10.53;;
16642;SDS011;8435;52.184;5.406;2023-04-29T05:18:10;13.07;;;11.10;;
16642;SDS011;8435;52.184;5.406;2023-04-29T05:20:37;12.37;;;11.17;;
16642;SDS011;8435;52.184;5.406;2023-04-29T05:23:04;13.60;;;10.93;;
16642;SDS011;8435;52.184;5.406;2023-04-29T05:25:32;11.90;;;10.70;;
16642;SDS011;8435;52.184;5.406;2023-04-29T05:27:59;13.63;;;10.60;;
16642;SDS011;8435;52.184;5.406;2023-04-29T05:30:27;13.37;;;11.30;;
16642;SDS011;8435;52.184;5.406;2023-04-29T05:32:54;12.90;;;10.77;;
16642;SDS011;8435;52.184;5.406;2023-04-29T05:35:21;11.83;;;10.63;;
16642;SDS011;8435;52.184;5.406;2023-04-29T05:37:48;11.10;;;10.00;;
16642;SDS011;8435;52.184;5.406;2023-04-29T05:40:15;12.97;;;11.30;;
16642;SDS011;8435;52.184;5.406;2023-04-29T05:42:43;13.00;;;10.67;;
16642;SDS011;8435;52.184;5.406;2023-04-29T05:45:11;12.70;;;11.30;;
16642;SDS011;8435;52.184;5.406;2023-04-29T05:47:37;15.30;;;11.67;;
16642;SDS011;8435;52.184;5.406;2023-04-29T05:50:06;13.83;;;12.27;;
16642;SDS011;8435;52.184;5.406;2023-04-29T05:52:39;12.83;;;11.17;;
16642;SDS011;8435;52.184;5.406;2023-04-29T05:55:05;13.20;;;11.17;;
16642;SDS011;8435;52.184;5.406;2023-04-29T05:57:33;12.67;;;11.37;;
16642;SDS011;8435;52.184;5.406;2023-04-29T06:00:01;13.57;;;12.20;;
16642;SDS011;8435;52.184;5.406;2023-04-29T06:02:27;15.70;;;12.67;;
16642;SDS011;8435;52.184;5.406;2023-04-29T06:04:55;13.60;;;11.67;;
16642;SDS011;8435;52.184;5.406;2023-04-29T06:07:23;16.03;;;12.27;;
16642;SDS011;8435;52.184;5.406;2023-04-29T06:09:50;14.77;;;12.40;;
16642;SDS011;8435;52.184;5.406;2023-04-29T06:12:18;12.83;;;11.03;;
16642;SDS011;8435;52.184;5.406;2023-04-29T06:14:45;15.37;;;12.60;;
16642;SDS011;8435;52.184;5.406;2023-04-29T06:17:16;13.80;;;10.97;;
16642;SDS011;8435;52.184;5.406;2023-04-29T06:19:43;14.13;;;11.27;;
16642;SDS011;8435;52.184;5.406;2023-04-29T06:22:10;13.40;;;11.10;;
16642;SDS011;8435;52.184;5.406;2023-04-29T06:24:37;12.33;;;11.13;;
16642;SDS011;8435;52.184;5.406;2023-04-29T06:27:04;14.10;;;11.23;;
16642;SDS011;8435;52.184;5.406;2023-04-29T06:29:31;13.47;;;12.07;;
16642;SDS011;8435;52.184;5.406;2023-04-29T06:31:58;12.47;;;10.67;;
16642;SDS011;8435;52.184;5.406;2023-04-29T06:34:29;14.17;;;11.60;;
16642;SDS011;8435;52.184;5.406;2023-04-29T06:36:56;13.37;;;11.60;;
16642;SDS011;8435;52.184;5.406;2023-04-29T06:39:25;12.80;;;11.40;;
16642;SDS011;8435;52.184;5.406;2023-04-29T06:41:52;13.33;;;11.27;;
16642;SDS011;8435;52.184;5.406;2023-04-29T06:44:19;12.53;;;11.23;;
16642;SDS011;8435;52.184;5.406;2023-04-29T06:46:45;13.63;;;11.30;;
16642;SDS011;8435;52.184;5.406;2023-04-29T06:49:12;13.10;;;11.47;;
16642;SDS011;8435;52.184;5.406;2023-04-29T06:51:41;13.10;;;11.30;;
16642;SDS011;8435;52.184;5.406;2023-04-29T06:54:08;14.37;;;11.50;;
16642;SDS011;8435;52.184;5.406;2023-04-29T06:56:35;14.67;;;11.10;;
16642;SDS011;8435;52.184;5.406;2023-04-29T06:59:01;13.80;;;11.93;;
16642;SDS011;8435;52.184;5.406;2023-04-29T07:01:28;13.00;;;10.73;;
16642;SDS011;8435;52.184;5.406;2023-04-29T07:03:55;14.67;;;11.27;;
16642;SDS011;8435;52.184;5.406;2023-04-29T07:06:22;11.87;;;9.97;;
16642;SDS011;8435;52.184;5.406;2023-04-29T07:08:50;12.47;;;10.40;;
16642;SDS011;8435;52.184;5.406;2023-04-29T07:11:17;12.37;;;10.10;;
16642;SDS011;8435;52.184;5.406;2023-04-29T07:13:45;12.63;;;10.17;;
16642;SDS011;8435;52.184;5.406;2023-04-29T07:16:15;9.93;;;8.93;;
16642;SDS011;8435;52.184;5.406;2023-04-29T07:18:44;10.67;;;9.20;;
16642;SDS011;8435;52.184;5.406;2023-04-29T07:21:13;13.30;;;9.50;;
16642;SDS011;8435;52.184;5.406;2023-04-29T07:23:40;11.40;;;9.40;;
16642;SDS011;8435;52.184;5.406;2023-04-29T07:26:11;10.53;;;9.07;;
16642;SDS011;8435;52.184;5.406;2023-04-29T07:28:40;9.80;;;8.03;;
16642;SDS011;8435;52.184;5.406;2023-04-29T07:31:07;9.73;;;8.80;;
16642;SDS011;8435;52.184;5.406;2023-04-29T07:33:34;10.30;;;8.87;;
16642;SDS011;8435;52.184;5.406;2023-04-29T07:36:01;11.00;;;7.73;;
16642;SDS011;8435;52.184;5.406;2023-04-29T07:38:29;10.30;;;7.90;;
16642;SDS011;8435;52.184;5.406;2023-04-29T07:40:55;9.45;;;7.65;;
16642;SDS011;8435;52.184;5.406;2023-04-29T07:43:24;10.63;;;8.48;;
16642;SDS011;8435;52.184;5.406;2023-04-29T07:45:50;8.98;;;7.53;;
16642;SDS011;8435;52.184;5.406;2023-04-29T07:48:19;8.20;;;7.25;;
16642;SDS011;8435;52.184;5.406;2023-04-29T07:50:46;8.20;;;7.35;;
16642;SDS011;8435;52.184;5.406;2023-04-29T07:53:14;7.18;;;6.50;;
16642;SDS011;8435;52.184;5.406;2023-04-29T07:55:42;8.25;;;7.20;;
16642;SDS011;8435;52.184;5.406;2023-04-29T07:58:09;8.05;;;7.15;;
16642;SDS011;8435;52.184;5.406;2023-04-29T08:00:37;8.52;;;6.68;;
16642;SDS011;8435;52.184;5.406;2023-04-29T08:03:03;6.97;;;6.30;;
16642;SDS011;8435;52.184;5.406;2023-04-29T08:05:30;7.35;;;6.65;;
16642;SDS011;8435;52.184;5.406;2023-04-29T08:07:57;7.40;;;6.60;;
16642;SDS011;8435;52.184;5.406;2023-04-29T08:10:24;6.72;;;6.13;;
16642;SDS011;8435;52.184;5.406;2023-04-29T08:12:51;7.63;;;6.32;;
16642;SDS011;8435;52.184;5.406;2023-04-29T08:15:18;6.78;;;6.13;;
16642;SDS011;8435;52.184;5.406;2023-04-29T08:17:46;6.90;;;6.30;;
16642;SDS011;8435;52.184;5.406;2023-04-29T08:20:13;7.07;;;6.47;;
16642;SDS011;8435;52.184;5.406;2023-04-29T08:22:40;7.45;;;6.63;;
16642;SDS011;8435;52.184;5.406;2023-04-29T08:25:07;7.43;;;6.35;;
16642;SDS011;8435;52.184;5.406;2023-04-29T08:27:35;7.18;;;6.53;;
16642;SDS011;8435;52.184;5.406;2023-04-29T08:30:02;6.68;;;6.00;;
16642;SDS011;8435;52.184;5.406;2023-04-29T08:32:29;6.22;;;5.65;;
16642;SDS011;8435;52.184;5.406;2023-04-29T08:34:57;6.97;;;6.25;;
16642;SDS011;8435;52.184;5.406;2023-04-29T08:37:24;6.43;;;5.75;;
16642;SDS011;8435;52.184;5.406;2023-04-29T08:39:51;6.40;;;5.90;;
16642;SDS011;8435;52.184;5.406;2023-04-29T08:42:18;6.68;;;6.00;;
16642;SDS011;8435;52.184;5.406;2023-04-29T08:45:00;6.85;;;5.88;;
16642;SDS011;8435;52.184;5.406;2023-04-29T08:47:30;7.18;;;6.28;;
16642;SDS011;8435;52.184;5.406;2023-04-29T08:50:00;8.65;;;6.88;;
16642;SDS011;8435;52.184;5.406;2023-04-29T08:52:32;7.60;;;6.70;;
16642;SDS011;8435;52.184;5.406;2023-04-29T08:55:00;7.00;;;6.38;;
16642;SDS011;8435;52.184;5.406;2023-04-29T08:57:28;7.80;;;6.70;;
16642;SDS011;8435;52.184;5.406;2023-04-29T09:00:03;7.20;;;6.20;;
16642;SDS011;8435;52.184;5.406;2023-04-29T09:02:34;7.30;;;6.60;;
16642;SDS011;8435;52.184;5.406;2023-04-29T09:05:08;6.45;;;5.85;;
16642;SDS011;8435;52.184;5.406;2023-04-29T09:07:36;6.22;;;5.72;;
16642;SDS011;8435;52.184;5.406;2023-04-29T09:10:04;6.40;;;5.80;;
16642;SDS011;8435;52.184;5.406;2023-04-29T09:12:32;6.63;;;5.50;;
16642;SDS011;8435;52.184;5.406;2023-04-29T09:15:00;6.38;;;5.68;;
16642;SDS011;8435;52.184;5.406;2023-04-29T09:20:28;5.30;;;4.90;;
16642;SDS011;8435;52.184;5.406;2023-04-29T09:22:56;5.22;;;4.82;;
16642;SDS011;8435;52.184;5.406;2023-04-29T09:25:25;7.03;;;5.10;;
16642;SDS011;8435;52.184;5.406;2023-04-29T09:27:55;5.43;;;4.93;;
16642;SDS011;8435;52.184;5.406;2023-04-29T09:30:22;5.35;;;4.85;;
16642;SDS011;8435;52.184;5.406;2023-04-29T09:33:03;5.80;;;5.28;;
16642;SDS011;8435;52.184;5.406;2023-04-29T09:35:32;6.53;;;5.65;;
16642;SDS011;8435;52.184;5.406;2023-04-29T09:38:10;7.07;;;5.05;;
16642;SDS011;8435;52.184;5.406;2023-04-29T09:40:38;5.25;;;4.75;;
16642;SDS011;8435;52.184;5.406;2023-04-29T09:43:12;5.40;;;4.90;;
16642;SDS011;8435;52.184;5.406;2023-04-29T09:45:41;7.05;;;5.20;;
16642;SDS011;8435;52.184;5.406;2023-04-29T09:48:11;6.40;;;5.10;;
16642;SDS011;8435;52.184;5.406;2023-04-29T09:50:42;5.68;;;5.18;;
16642;SDS011;8435;52.184;5.406;2023-04-29T09:53:11;6.80;;;4.68;;
16642;SDS011;8435;52.184;5.406;2023-04-29T09:56:02;5.38;;;4.57;;
16642;SDS011;8435;52.184;5.406;2023-04-29T09:58:29;6.20;;;5.60;;
16642;SDS011;8435;52.184;5.406;2023-04-29T10:01:01;7.25;;;4.72;;
16642;SDS011;8435;52.184;5.406;2023-04-29T10:03:30;5.93;;;5.43;;
16642;SDS011;8435;52.184;5.406;2023-04-29T10:06:00;5.80;;;5.25;;
16642;SDS011;8435;52.184;5.406;2023-04-29T10:08:29;5.85;;;5.28;;
16642;SDS011;8435;52.184;5.406;2023-04-29T10:10:57;5.95;;;5.05;;
16642;SDS011;8435;52.184;5.406;2023-04-29T10:13:26;5.47;;;4.97;;
16642;SDS011;8435;52.184;5.406;2023-04-29T10:15:57;5.05;;;4.60;;
16642;SDS011;8435;52.184;5.406;2023-04-29T10:18:29;5.72;;;5.22;;
16642;SDS011;8435;52.184;5.406;2023-04-29T10:21:02;5.50;;;4.80;;
16642;SDS011;8435;52.184;5.406;2023-04-29T10:23:33;5.22;;;4.63;;
16642;SDS011;8435;52.184;5.406;2023-04-29T10:26:00;5.18;;;4.68;;
16642;SDS011;8435;52.184;5.406;2023-04-29T10:28:31;4.68;;;4.30;;
16642;SDS011;8435;52.184;5.406;2023-04-29T10:30:58;4.60;;;4.20;;
16642;SDS011;8435;52.184;5.406;2023-04-29T10:33:28;5.20;;;4.70;;
16642;SDS011;8435;52.184;5.406;2023-04-29T10:35:57;4.55;;;4.15;;
16642;SDS011;8435;52.184;5.406;2023-04-29T10:38:28;4.70;;;4.30;;
16642;SDS011;8435;52.184;5.406;2023-04-29T10:41:01;4.55;;;4.15;;
16642;SDS011;8435;52.184;5.406;2023-04-29T10:43:33;7.13;;;4.45;;
16642;SDS011;8435;52.184;5.406;2023-04-29T10:46:16;4.68;;;4.22;;
16642;SDS011;8435;52.184;5.406;2023-04-29T10:48:44;4.57;;;4.18;;
16642;SDS011;8435;52.184;5.406;2023-04-29T10:51:11;4.32;;;3.92;;
16642;SDS011;8435;52.184;5.406;2023-04-29T10:56:34;4.85;;;4.10;;
16642;SDS011;8435;52.184;5.406;2023-04-29T10:59:04;4.78;;;4.32;;
16642;SDS011;8435;52.184;5.406;2023-04-29T11:01:44;4.38;;;4.03;;
16642;SDS011;8435;52.184;5.406;2023-04-29T11:04:13;6.30;;;4.38;;
16642;SDS011;8435;52.184;5.406;2023-04-29T11:06:41;4.50;;;4.05;;
16642;SDS011;8435;52.184;5.406;2023-04-29T11:09:14;4.10;;;3.72;;
16642;SDS011;8435;52.184;5.406;2023-04-29T11:12:00;6.38;;;4.57;;
16642;SDS011;8435;52.184;5.406;2023-04-29T11:14:30;5.22;;;4.72;;
16642;SDS011;8435;52.184;5.406;2023-04-29T11:17:02;5.25;;;4.72;;
16642;SDS011;8435;52.184;5.406;2023-04-29T11:19:30;5.38;;;4.80;;
16642;SDS011;8435;52.184;5.406;2023-04-29T11:22:10;5.82;;;5.18;;
16642;SDS011;8435;52.184;5.406;2023-04-29T11:24:49;5.60;;;5.20;;
16642;SDS011;8435;52.184;5.406;2023-04-29T11:27:19;6.07;;;5.47;;
16642;SDS011;8435;52.184;5.406;2023-04-29T11:29:49;5.05;;;4.55;;
16642;SDS011;8435;52.184;5.406;2023-04-29T11:32:19;7.43;;;5.63;;
16642;SDS011;8435;52.184;5.406;2023-04-29T11:34:47;5.43;;;4.88;;
16642;SDS011;8435;52.184;5.406;2023-04-29T11:37:17;5.72;;;4.90;;
16642;SDS011;8435;52.184;5.406;2023-04-29T11:39:58;4.65;;;4.25;;
16642;SDS011;8435;52.184;5.406;2023-04-29T11:42:29;6.53;;;5.85;;
16642;SDS011;8435;52.184;5.406;2023-04-29T11:44:55;5.82;;;5.18;;
16642;SDS011;8435;52.184;5.406;2023-04-29T11:47:27;5.75;;;5.22;;
16642;SDS011;8435;52.184;5.406;2023-04-29T11:50:00;5.97;;;5.15;;
16642;SDS011;8435;52.184;5.406;2023-04-29T11:52:28;5.38;;;4.80;;
16642;SDS011;8435;52.184;5.406;2023-04-29T11:54:57;6.88;;;5.75;;
16642;SDS011;8435;52.184;5.406;2023-04-29T11:57:30;6.53;;;5.93;;
16642;SDS011;8435;52.184;5.406;2023-04-29T11:59:57;6.15;;;5.30;;
16642;SDS011;8435;52.184;5.406;2023-04-29T12:02:27;6.45;;;5.63;;
16642;SDS011;8435;52.184;5.406;2023-04-29T12:04:57;6.22;;;5.63;;
16642;SDS011;8435;52.184;5.406;2023-04-29T12:07:25;6.05;;;5.35;;
16642;SDS011;8435;52.184;5.406;2023-04-29T12:09:53;6.57;;;5.75;;
16642;SDS011;8435;52.184;5.406;2023-04-29T12:12:22;6.93;;;5.57;;
16642;SDS011;8435;52.184;5.406;2023-04-29T12:14:51;6.55;;;5.85;;
16642;SDS011;8435;52.184;5.406;2023-04-29T12:17:18;6.18;;;5.57;;
16642;SDS011;8435;52.184;5.406;2023-04-29T12:19:46;6.72;;;5.57;;
16642;SDS011;8435;52.184;5.406;2023-04-29T12:22:13;6.40;;;5.65;;
16642;SDS011;8435;52.184;5.406;2023-04-29T12:24:40;6.65;;;5.93;;
16642;SDS011;8435;52.184;5.406;2023-04-29T12:27:07;6.10;;;5.50;;
16642;SDS011;8435;52.184;5.406;2023-04-29T12:29:36;6.18;;;5.57;;
16642;SDS011;8435;52.184;5.406;2023-04-29T12:32:04;5.88;;;5.30;;
16642;SDS011;8435;52.184;5.406;2023-04-29T12:34:32;5.80;;;5.20;;
16642;SDS011;8435;52.184;5.406;2023-04-29T12:36:59;7.35;;;5.25;;
16642;SDS011;8435;52.184;5.406;2023-04-29T12:39:27;6.88;;;5.55;;
16642;SDS011;8435;52.184;5.406;2023-04-29T12:41:54;5.53;;;5.03;;
16642;SDS011;8435;52.184;5.406;2023-04-29T12:44:22;5.60;;;5.10;;
16642;SDS011;8435;52.184;5.406;2023-04-29T12:46:51;5.82;;;4.60;;
16642;SDS011;8435;52.184;5.406;2023-04-29T12:49:18;6.15;;;5.22;;
16642;SDS011;8435;52.184;5.406;2023-04-29T12:51:45;6.05;;;5.30;;
16642;SDS011;8435;52.184;5.406;2023-04-29T12:54:15;5.60;;;5.07;;
16642;SDS011;8435;52.184;5.406;2023-04-29T12:56:41;5.32;;;4.85;;
16642;SDS011;8435;52.184;5.406;2023-04-29T12:59:08;5.20;;;4.70;;
16642;SDS011;8435;52.184;5.406;2023-04-29T13:01:36;6.18;;;4.90;;
16642;SDS011;8435;52.184;5.406;2023-04-29T13:04:07;5.95;;;5.38;;
16642;SDS011;8435;52.184;5.406;2023-04-29T13:06:36;4.93;;;4.45;;
16642;SDS011;8435;52.184;5.406;2023-04-29T13:09:05;5.75;;;5.18;;
16642;SDS011;8435;52.184;5.406;2023-04-29T13:11:35;6.20;;;5.20;;
16642;SDS011;8435;52.184;5.406;2023-04-29T13:14:02;5.60;;;4.90;;
16642;SDS011;8435;52.184;5.406;2023-04-29T13:16:30;7.50;;;5.65;;
16642;SDS011;8435;52.184;5.406;2023-04-29T13:18:57;5.60;;;4.70;;
16642;SDS011;8435;52.184;5.406;2023-04-29T13:21:28;6.50;;;4.70;;
16642;SDS011;8435;52.184;5.406;2023-04-29T13:23:56;4.95;;;4.55;;
16642;SDS011;8435;52.184;5.406;2023-04-29T13:26:25;6.28;;;5.10;;
16642;SDS011;8435;52.184;5.406;2023-04-29T13:28:51;5.30;;;4.63;;
16642;SDS011;8435;52.184;5.406;2023-04-29T13:31:18;5.70;;;5.20;;
16642;SDS011;8435;52.184;5.406;2023-04-29T13:33:46;6.10;;;4.97;;
16642;SDS011;8435;52.184;5.406;2023-04-29T13:36:13;5.30;;;4.78;;
16642;SDS011;8435;52.184;5.406;2023-04-29T13:38:41;5.60;;;5.10;;
16642;SDS011;8435;52.184;5.406;2023-04-29T13:41:08;6.35;;;5.75;;
16642;SDS011;8435;52.184;5.406;2023-04-29T13:43:35;5.80;;;5.20;;
16642;SDS011;8435;52.184;5.406;2023-04-29T13:46:02;5.20;;;4.70;;
16642;SDS011;8435;52.184;5.406;2023-04-29T13:48:29;5.38;;;4.93;;
16642;SDS011;8435;52.184;5.406;2023-04-29T13:50:55;7.50;;;5.78;;
16642;SDS011;8435;52.184;5.406;2023-04-29T13:53:22;7.28;;;5.80;;
16642;SDS011;8435;52.184;5.406;2023-04-29T13:55:51;6.50;;;5.47;;
16642;SDS011;8435;52.184;5.406;2023-04-29T13:58:18;5.45;;;4.82;;
16642;SDS011;8435;52.184;5.406;2023-04-29T14:00:44;6.43;;;5.28;;
16642;SDS011;8435;52.184;5.406;2023-04-29T14:03:14;5.35;;;4.88;;
16642;SDS011;8435;52.184;5.406;2023-04-29T14:05:44;5.38;;;4.40;;
16642;SDS011;8435;52.184;5.406;2023-04-29T14:08:11;6.63;;;5.40;;
16642;SDS011;8435;52.184;5.406;2023-04-29T14:10:39;5.40;;;4.88;;
16642;SDS011;8435;52.184;5.406;2023-04-29T14:13:07;6.05;;;5.00;;
16642;SDS011;8435;52.184;5.406;2023-04-29T14:15:34;6.78;;;4.70;;
16642;SDS011;8435;52.184;5.406;2023-04-29T14:18:03;4.55;;;4.07;;
16642;SDS011;8435;52.184;5.406;2023-04-29T14:20:32;5.13;;;4.63;;
16642;SDS011;8435;52.184;5.406;2023-04-29T14:22:58;4.95;;;4.45;;
16642;SDS011;8435;52.184;5.406;2023-04-29T14:25:25;4.82;;;4.40;;
16642;SDS011;8435;52.184;5.406;2023-04-29T14:27:55;5.70;;;4.40;;
16642;SDS011;8435;52.184;5.406;2023-04-29T14:30:23;5.10;;;4.32;;
16642;SDS011;8435;52.184;5.406;2023-04-29T14:32:49;5.72;;;4.47;;
16642;SDS011;8435;52.184;5.406;2023-04-29T14:35:16;4.43;;;4.05;;
16642;SDS011;8435;52.184;5.406;2023-04-29T14:37:43;5.28;;;4.20;;
16642;SDS011;8435;52.184;5.406;2023-04-29T14:40:10;4.45;;;3.88;;
16642;SDS011;8435;52.184;5.406;2023-04-29T14:42:37;4.17;;;3.87;;
16642;SDS011;8435;52.184;5.406;2023-04-29T14:45:05;4.45;;;3.50;;
16642;SDS011;8435;52.184;5.406;2023-04-29T14:47:34;3.70;;;3.40;;
16642;SDS011;8435;52.184;5.406;2023-04-29T14:50:01;3.65;;;3.17;;
16642;SDS011;8435;52.184;5.406;2023-04-29T14:52:28;4.63;;;3.80;;
16642;SDS011;8435;52.184;5.406;2023-04-29T14:54:55;4.90;;;3.85;;
16642;SDS011;8435;52.184;5.406;2023-04-29T14:57:22;4.47;;;3.72;;
16642;SDS011;8435;52.184;5.406;2023-04-29T14:59:49;4.30;;;3.67;;
16642;SDS011;8435;52.184;5.406;2023-04-29T15:02:18;3.97;;;3.35;;